Time;durP1;ratioP1;P1;durP2;ratioP2;P2;SDS_P1;SDS_P2;PMS_P1;PMS_P2;Temp;Humidity;BMP_temperature;BMP_pressure;BME280_temperature;BME280_humidity;BME280_pressure;Samples;Min_cycle;Max_cycle;Signal;HPM_P1;HPM_P2
2023/02/28 00:01:12;;;;;;;12.70;8.30;;;;;;;2.73;84.61;99974.14;79704;1296;3013418;-65
2023/02/28 00:03:41;;;;;;;11.60;6.40;;;;;;;2.46;86.00;99970.19;79105;1292;3011741;-64
2023/02/28 00:06:09;;;;;;;11.30;6.10;;;;;;;2.90;86.09;99970.15;79597;1295;3013447;-64
2023/02/28 00:08:36;;;;;;;13.00;8.10;;;;;;;3.53;89.67;99964.95;79830;1305;3011923;-70
2023/02/28 00:11:10;;;;;;;14.40;8.30;;;;;;;3.47;85.34;99974.79;78572;1292;3069346;-66
2023/02/28 00:13:46;;;;;;;14.40;9.20;;;;;;;3.28;83.27;99979.38;79193;1294;3013079;-69
2023/02/28 00:16:14;;;;;;;;;;;;;;;3.12;84.02;99978.69;79650;1297;3013437;-67
2023/02/28 00:18:42;;;;;;;15.50;8.70;;;;;;;2.74;84.74;99982.26;78414;1291;3055744;-67
2023/02/28 00:21:09;;;;;;;17.40;9.30;;;;;;;2.60;85.62;99977.69;79681;1297;3011819;-66
2023/02/28 00:23:35;;;;;;;17.00;9.90;;;;;;;2.49;86.28;99970.64;79618;1292;3013745;-64
2023/02/28 00:26:03;;;;;;;17.10;9.40;;;;;;;2.39;86.41;99975.83;78375;1297;3028268;-66
2023/02/28 00:28:30;;;;;;;11.90;7.10;;;;;;;2.37;86.84;99981.08;79717;1295;3012885;-67
2023/02/28 00:31:04;;;;;;;14.70;8.30;;;;;;;2.75;86.07;99970.63;78436;1296;3051565;-70
2023/02/28 00:33:31;;;;;;;15.80;8.80;;;;;;;3.32;83.74;99965.25;79567;1298;3012952;-66
2023/02/28 00:36:16;;;;;;;16.90;9.50;;;;;;;3.40;82.74;99965.59;79566;1295;3011886;-67
2023/02/28 00:38:43;;;;;;;16.10;9.30;;;;;;;3.20;82.69;99968.11;78415;1305;3051573;-70
2023/02/28 00:41:10;;;;;;;17.60;10.30;;;;;;;2.81;83.71;99969.48;79672;1295;3013699;-67
2023/02/28 00:43:38;;;;;;;18.10;9.90;;;;;;;2.60;84.95;99974.41;79576;1295;3011616;-68
2023/02/28 00:46:06;;;;;;;19.60;12.00;;;;;;;2.53;85.34;99969.87;78402;1298;3050742;-68
2023/02/28 00:48:35;;;;;;;19.50;11.50;;;;;;;2.20;86.14;99968.76;79624;1292;3013007;-67
2023/02/28 00:51:02;;;;;;;18.90;10.90;;;;;;;2.19;87.07;99972.58;79578;1298;3011622;-66
2023/02/28 00:53:35;;;;;;;11.10;5.90;;;;;;;2.16;87.53;99971.61;78369;1305;3050736;-67
2023/02/28 00:56:02;;;;;;;16.20;9.50;;;;;;;2.76;86.22;99971.84;79635;1296;3013471;-65
2023/02/28 00:58:36;;;;;;;16.60;8.90;;;;;;;3.15;83.82;99971.70;78352;1298;3069738;-67
2023/02/28 01:01:04;;;;;;;18.20;10.10;;;;;;;3.05;83.04;99962.59;79637;1292;3013135;-64
2023/02/28 01:03:31;;;;;;;18.60;10.40;;;;;;;2.96;82.75;99968.49;79706;1292;3012067;-66
2023/02/28 01:06:00;;;;;;;18.50;11.00;;;;;;;2.74;83.38;99974.99;78423;1293;3053167;-63
2023/02/28 01:08:27;;;;;;;18.50;9.90;;;;;;;2.40;84.58;99982.06;79644;1295;3013841;-63
2023/02/28 01:10:55;;;;;;;17.80;9.50;;;;;;;2.50;84.75;99996.38;79618;1298;3011806;-62
2023/02/28 01:13:25;;;;;;;21.10;10.80;;;;;;;2.25;85.11;99998.06;78342;1297;3070403;-67
2023/02/28 01:15:52;;;;;;;20.40;9.80;;;;;;;2.05;86.51;100002.90;79688;1292;3013737;-65
2023/02/28 01:18:25;;;;;;;12.20;7.00;;;;;;;1.88;86.96;100006.46;78309;1297;3048870;-67
2023/02/28 01:20:53;;;;;;;12.70;6.50;;;;;;;2.17;86.64;100006.66;79575;1296;3013207;-62
2023/02/28 01:23:21;;;;;;;16.10;9.10;;;;;;;2.69;84.87;100010.37;79633;1296;3011562;-63
2023/02/28 01:25:50;;;;;;;14.80;8.60;;;;;;;2.73;83.92;100016.17;78402;1297;3051745;-66
2023/02/28 01:28:17;;;;;;;15.60;8.50;;;;;;;2.78;83.11;100011.95;79707;1296;3012576;-66
2023/02/28 01:30:49;;;;;;;17.30;9.10;;;;;;;2.42;83.54;100010.36;79631;1291;3013689;-67
2023/02/28 01:33:18;;;;;;;14.40;8.70;;;;;;;2.29;84.28;100009.73;78398;1305;3050115;-66
2023/02/28 01:35:46;;;;;;;15.00;8.30;;;;;;;2.08;84.57;100008.89;79608;1292;3013541;-66
2023/02/28 01:38:12;;;;;;;14.90;8.50;;;;;;;1.85;85.42;100008.41;79925;1298;3011364;-63
2023/02/28 01:40:40;;;;;;;13.50;8.30;;;;;;;1.56;86.56;99999.37;79402;1297;3051239;-63
2023/02/28 01:43:22;;;;;;;10.20;5.70;;;;;;;1.51;87.46;100007.03;80728;1291;3013598;-64
2023/02/28 01:45:52;;;;;;;9.10;5.30;;;;;;;2.20;85.55;100005.73;79414;1291;3058460;-63
2023/02/28 01:48:27;;;;;;;12.90;6.40;;;;;;;2.84;82.45;99999.53;80162;1292;3013139;-64
2023/02/28 01:50:56;;;;;;;13.20;6.30;;;;;;;2.85;81.15;99993.80;78239;1295;3053187;-66
2023/02/28 01:53:27;;;;;;;10.80;6.90;;;;;;;2.76;80.99;99988.95;79496;1291;3013165;-66
2023/02/28 01:55:56;;;;;;;12.60;7.70;;;;;;;2.51;81.18;99982.88;78226;1296;3053266;-66
2023/02/28 01:58:23;;;;;;;13.20;8.20;;;;;;;2.03;82.43;99988.41;79388;1297;3018559;-66
2023/02/28 02:00:50;;;;;;;12.60;7.40;;;;;;;2.05;83.12;99991.32;79751;1297;3011962;-64
2023/02/28 02:03:21;;;;;;;14.60;8.30;;;;;;;2.00;82.77;100003.84;78492;1295;3025926;-66
2023/02/28 02:05:48;;;;;;;12.90;7.60;;;;;;;1.65;83.96;100008.55;79596;1294;3013143;-65
2023/02/28 02:08:19;;;;;;;13.40;8.20;;;;;;;1.60;84.54;100017.63;78356;1297;3028306;-65
2023/02/28 02:10:53;;;;;;;10.00;5.20;;;;;;;1.42;85.34;100024.94;79641;1295;3011993;-65
2023/02/28 02:13:30;;;;;;;11.50;6.10;;;;;;;2.13;84.20;100035.59;78334;1297;3052214;-69
2023/02/28 02:16:20;;;;;;;11.90;6.80;;;;;;;2.50;81.84;100040.48;78259;1294;3069172;-70
2023/02/28 02:18:57;;;;;;;13.00;7.30;;;;;;;2.46;81.07;100049.20;78367;1297;3052755;-66
2023/02/28 02:21:53;;;;;;;13.80;8.00;;;;;;;1.87;82.51;100054.15;78386;1296;3058176;-67
2023/02/28 02:24:40;;;;;;;14.30;6.90;;;;;;;1.70;83.97;100055.61;78365;1295;3049516;-69
2023/02/28 02:27:30;;;;;;;14.30;8.10;;;;;;;1.59;84.19;100068.73;78453;1295;3053743;-66
2023/02/28 02:30:08;;;;;;;14.50;7.90;;;;;;;1.49;83.99;100074.91;78477;1295;3050730;-70
2023/02/28 02:32:54;;;;;;;14.00;8.60;;;;;;;1.26;84.91;100082.12;78395;1295;3052609;-68
2023/02/28 02:35:30;;;;;;;14.80;8.40;;;;;;;1.07;85.75;100089.94;78348;1297;3052694;-67
2023/02/28 02:38:07;;;;;;;10.40;5.80;;;;;;;0.90;86.68;100099.62;78322;1297;3068910;-66
2023/02/28 02:40:39;;;;;;;9.40;5.60;;;;;;;1.44;85.95;100093.46;78396;1297;3051736;-69
2023/02/28 02:43:35;;;;;;;12.70;8.10;;;;;;;1.83;83.47;100084.61;79464;1293;3013009;-66
2023/02/28 02:46:23;;;;;;;13.90;8.50;;;;;;;1.84;82.92;100076.67;78490;1297;3049722;-69
2023/02/28 02:48:51;;;;;;;15.50;9.60;;;;;;;1.38;83.74;100086.80;78461;1297;3054482;-64
2023/02/28 02:51:20;;;;;;;14.10;9.10;;;;;;;1.34;84.32;100081.50;79668;1296;3015313;-66
2023/02/28 02:54:03;;;;;;;17.90;10.00;;;;;;;1.23;84.51;100089.23;79034;1297;3011770;-65
2023/02/28 02:56:32;;;;;;;14.00;8.40;;;;;;;0.85;86.02;100092.09;78300;1296;3052244;-67
2023/02/28 02:59:02;;;;;;;16.30;9.10;;;;;;;0.83;86.92;100100.05;79557;1296;3013591;-62
2023/02/28 03:01:30;;;;;;;14.50;9.00;;;;;;;0.69;87.43;100106.40;78242;1297;3057037;-64
2023/02/28 03:03:59;;;;;;;14.60;9.20;;;;;;;0.67;87.81;100112.62;79516;1294;3013513;-65
2023/02/28 03:06:28;;;;;;;11.90;5.70;;;;;;;0.57;87.70;100121.51;78918;1297;3011787;-64
2023/02/28 03:08:55;;;;;;;11.40;6.40;;;;;;;1.08;86.56;100137.37;79478;1297;3013796;-63
2023/02/28 03:11:23;;;;;;;13.80;8.00;;;;;;;1.58;84.19;100129.55;79524;1295;3011953;-69
2023/02/28 03:14:10;;;;;;;13.60;8.70;;;;;;;1.48;83.60;100141.92;78417;1293;3067474;-69
2023/02/28 03:17:00;;;;;;;14.00;8.70;;;;;;;1.14;84.37;100146.30;78467;1297;3052208;-66
2023/02/28 03:19:52;;;;;;;13.00;8.00;;;;;;;1.06;85.70;100150.70;78490;1293;3057272;-68
2023/02/28 03:22:32;;;;;;;16.80;8.80;;;;;;;0.88;86.21;100154.84;78391;1298;3050994;-67
2023/02/28 03:25:19;;;;;;;16.00;8.10;;;;;;;0.64;86.70;100157.99;78337;1297;3054460;-66
2023/02/28 03:27:53;;;;;;;15.10;8.80;;;;;;;0.69;86.96;100153.98;78302;1297;3051189;-63
2023/02/28 03:30:26;;;;;;;14.50;8.60;;;;;;;0.52;87.45;100155.52;79499;1296;3012133;-65
2023/02/28 03:32:58;;;;;;;;;;;;;;;0.44;87.60;100152.14;78327;1297;3053836;-66
2023/02/28 03:35:34;;;;;;;9.00;5.50;;;;;;;1.06;86.95;100154.12;79545;1296;3011767;-65
2023/02/28 03:38:13;;;;;;;12.40;7.50;;;;;;;1.78;83.07;100150.16;78265;1297;3052942;-67
2023/02/28 03:40:45;;;;;;;10.80;7.00;;;;;;;1.75;81.55;100147.97;78220;1294;3057098;-65
2023/02/28 03:43:14;;;;;;;15.10;10.00;;;;;;;1.55;82.04;100150.80;79641;1292;3011838;-64
2023/02/28 03:45:42;;;;;;;11.40;7.80;;;;;;;1.37;82.81;100160.88;78376;1294;3052543;-65
2023/02/28 03:48:38;;;;;;;13.90;8.00;;;;;;;1.16;83.34;100160.77;79277;1300;3013099;-69
2023/02/28 03:51:07;;;;;;;19.40;9.60;;;;;;;1.04;83.81;100158.64;78542;1295;3052749;-64
2023/02/28 03:53:36;;;;;;;13.70;8.20;;;;;;;0.84;84.43;100157.48;79719;1293;3013160;-66
2023/02/28 03:56:18;;;;;;;12.30;8.10;;;;;;;0.83;84.53;100165.41;79695;1291;3014653;-65
2023/02/28 03:58:53;;;;;;;17.50;8.90;;;;;;;0.67;84.79;100162.46;78281;1294;3050026;-67
2023/02/28 04:01:25;;;;;;;16.20;8.60;;;;;;;0.72;84.87;100169.13;78187;1297;3054484;-66
2023/02/28 04:03:53;;;;;;;9.30;5.40;;;;;;;0.64;85.24;100182.30;79581;1295;3013379;-66
2023/02/28 04:06:21;;;;;;;10.60;5.70;;;;;;;1.21;84.44;100175.21;78311;1296;3026646;-66
2023/02/28 04:08:48;;;;;;;10.20;6.20;;;;;;;1.56;81.66;100177.55;79439;1294;3013417;-63
2023/02/28 04:11:38;;;;;;;12.70;7.90;;;;;;;1.64;80.42;100178.67;79187;1293;3011578;-64
2023/02/28 04:14:07;;;;;;;13.30;7.80;;;;;;;1.56;80.56;100183.95;78128;1298;3051810;-64
2023/02/28 04:16:36;;;;;;;13.20;7.60;;;;;;;1.39;81.51;100189.34;79684;1293;3013074;-65
2023/02/28 04:19:06;;;;;;;14.20;7.70;;;;;;;1.43;81.26;100193.27;79167;1294;3011442;-65
2023/02/28 04:21:35;;;;;;;12.40;7.50;;;;;;;1.37;81.34;100199.54;79668;1292;3013437;-64
2023/02/28 04:24:08;;;;;;;12.20;7.40;;;;;;;1.16;81.45;100206.15;78494;1297;3052145;-67
2023/02/28 04:26:36;;;;;;;13.50;7.80;;;;;;;1.23;81.87;100214.19;79575;1296;3014191;-66
2023/02/28 04:29:04;;;;;;;14.90;8.40;;;;;;;1.07;81.68;100216.91;79565;1297;3013501;-65
2023/02/28 04:31:31;;;;;;;13.90;8.40;;;;;;;0.86;82.23;100211.27;78505;1295;3057673;-59
2023/02/28 04:33:59;;;;;;;14.30;8.10;;;;;;;0.85;82.61;100217.31;79574;1292;3013127;-59
2023/02/28 04:36:26;;;;;;;14.00;7.80;;;;;;;0.77;82.87;100222.38;79739;1291;3011860;-60
2023/02/28 04:38:56;;;;;;;11.30;6.30;;;;;;;0.67;83.38;100230.39;78437;1296;3054036;-58
2023/02/28 04:41:24;;;;;;;10.30;6.40;;;;;;;1.16;82.48;100226.66;79796;1295;3014015;-64
2023/02/28 04:43:52;;;;;;;12.10;7.40;;;;;;;1.60;79.82;100223.11;79604;1292;3011651;-65
2023/02/28 04:46:20;;;;;;;11.60;7.40;;;;;;;1.49;79.60;100227.55;78600;1295;3057762;-66
2023/02/28 04:48:47;;;;;;;14.40;8.10;;;;;;;1.49;79.70;100229.10;79836;1291;3013770;-68
2023/02/28 04:51:14;;;;;;;15.20;8.40;;;;;;;1.21;79.99;100225.27;79756;1292;3011954;-66
2023/02/28 04:53:46;;;;;;;14.90;8.60;;;;;;;0.96;80.58;100228.77;78651;1291;3054227;-67
2023/02/28 04:56:13;;;;;;;17.60;8.40;;;;;;;0.92;81.19;100219.83;79908;1296;3013507;-65
2023/02/28 04:58:40;;;;;;;16.30;8.20;;;;;;;0.72;81.93;100226.73;79804;1292;3011634;-65
2023/02/28 05:01:25;;;;;;;14.20;8.00;;;;;;;0.69;82.54;100229.00;78610;1295;3055793;-67
2023/02/28 05:03:55;;;;;;;15.30;9.30;;;;;;;0.57;82.83;100237.88;78607;1296;3049837;-68
2023/02/28 05:06:24;;;;;;;14.00;8.40;;;;;;;0.51;83.48;100242.75;79837;1293;3013445;-65
2023/02/28 05:08:52;;;;;;;16.20;9.00;;;;;;;0.46;83.14;100246.24;78393;1296;3027131;-67
2023/02/28 05:11:25;;;;;;;13.90;8.20;;;;;;;0.42;83.57;100254.18;79666;1291;3011649;-67
2023/02/28 05:13:53;;;;;;;10.10;6.40;;;;;;;0.32;84.57;100259.76;78520;1296;3051896;-67
2023/02/28 05:16:20;;;;;;;10.80;6.70;;;;;;;0.91;83.43;100255.72;79657;1292;3013372;-66
2023/02/28 05:18:47;;;;;;;13.30;7.30;;;;;;;1.34;81.38;100263.78;79614;1291;3011939;-65
2023/02/28 05:21:30;;;;;;;13.70;6.80;;;;;;;1.28;80.76;100255.56;78465;1295;3048756;-65
2023/02/28 05:24:02;;;;;;;13.20;6.70;;;;;;;1.07;80.87;100256.79;78559;1291;3053744;-66
2023/02/28 05:26:29;;;;;;;16.40;7.10;;;;;;;0.90;81.70;100253.15;79590;1292;3011594;-64
2023/02/28 05:28:58;;;;;;;11.90;7.90;;;;;;;0.71;82.54;100255.89;78476;1296;3053594;-66
2023/02/28 05:31:25;;;;;;;12.30;7.40;;;;;;;0.49;83.49;100255.00;79657;1296;3014037;-66
2023/02/28 05:33:52;;;;;;;13.50;7.10;;;;;;;0.42;84.00;100255.91;79671;1295;3011963;-66
2023/02/28 05:36:22;;;;;;;14.20;7.90;;;;;;;0.20;85.30;100259.49;78319;1297;3057367;-67
2023/02/28 05:38:49;;;;;;;14.40;8.50;;;;;;;0.07;85.82;100264.55;79998;1291;3013401;-68
2023/02/28 05:41:20;;;;;;;15.20;6.20;;;;;;;0.16;86.14;100271.40;78502;1292;3051749;-67
2023/02/28 05:43:47;;;;;;;16.00;7.50;;;;;;;0.74;85.03;100270.52;79579;1296;3018634;-67
2023/02/28 05:46:14;;;;;;;13.30;7.50;;;;;;;1.10;82.61;100275.58;79781;1293;3011590;-67
2023/02/28 05:48:42;;;;;;;14.50;8.20;;;;;;;0.96;82.25;100277.59;78542;1297;3027690;-65
2023/02/28 05:51:09;;;;;;;15.20;8.00;;;;;;;0.78;82.61;100272.73;79723;1296;3013507;-65
2023/02/28 05:53:35;;;;;;;18.10;9.70;;;;;;;0.62;83.15;100280.27;79757;1291;3011650;-65
2023/02/28 05:56:03;;;;;;;13.40;8.30;;;;;;;0.53;84.07;100289.10;78496;1296;3027458;-65
2023/02/28 05:58:30;;;;;;;14.30;8.00;;;;;;;0.37;84.36;100290.23;79810;1296;3013181;-65
2023/02/28 06:00:58;;;;;;;12.70;8.10;;;;;;;0.25;84.90;100285.48;79531;1291;3011660;-67
2023/02/28 06:03:26;;;;;;;14.70;8.30;;;;;;;0.21;85.45;100285.67;78576;1291;3050442;-64
2023/02/28 06:05:53;;;;;;;12.10;7.90;;;;;;;-0.03;86.51;100284.40;79696;1291;3013241;-69
2023/02/28 06:08:19;;;;;;;9.90;5.30;;;;;;;0.15;86.70;100284.33;79816;1295;3011832;-69
2023/02/28 06:10:47;;;;;;;10.70;6.50;;;;;;;0.66;85.30;100291.60;78562;1295;3029241;-68
2023/02/28 06:13:15;;;;;;;9.70;5.80;;;;;;;1.21;82.54;100292.04;79788;1295;3013673;-68
2023/02/28 06:15:41;;;;;;;10.60;6.20;;;;;;;1.02;81.66;100299.80;79561;1292;3011607;-66
2023/02/28 06:18:11;;;;;;;10.40;6.50;;;;;;;0.86;81.92;100295.27;78660;1293;3051056;-69
2023/02/28 06:20:38;;;;;;;10.10;6.60;;;;;;;0.60;82.82;100289.41;79823;1291;3013385;-69
2023/02/28 06:23:07;;;;;;;12.40;6.70;;;;;;;0.45;83.37;100295.19;79838;1291;3011394;-65
2023/02/28 06:25:36;;;;;;;13.10;7.00;;;;;;;0.40;84.10;100297.80;78541;1294;3051287;-69
2023/02/28 06:28:06;;;;;;;13.40;7.60;;;;;;;0.23;84.70;100293.59;79815;1291;3013233;-66
2023/02/28 06:30:37;;;;;;;10.20;6.40;;;;;;;0.11;84.63;100298.13;79007;1296;3052497;-66
2023/02/28 06:33:04;;;;;;;11.70;6.50;;;;;;;-0.01;85.43;100300.60;80300;1291;3013046;-65
2023/02/28 06:35:31;;;;;;;11.10;6.40;;;;;;;0.07;85.37;100308.48;80147;1291;3011797;-65
2023/02/28 06:37:59;;;;;;;9.10;5.30;;;;;;;0.21;85.17;100311.18;78302;1295;3049789;-66
2023/02/28 06:40:26;;;;;;;8.30;4.90;;;;;;;0.78;83.55;100303.41;79471;1296;3011738;-65
2023/02/28 06:42:53;;;;;;;9.00;5.80;;;;;;;1.26;81.34;100305.64;79702;1291;3011832;-64
2023/02/28 06:45:21;;;;;;;9.60;5.50;;;;;;;1.01;80.80;100307.74;78899;1295;3054541;-67
2023/02/28 06:47:51;;;;;;;9.90;6.10;;;;;;;0.94;80.76;100302.27;79694;1291;3011808;-64
2023/02/28 06:50:20;;;;;;;9.60;5.50;;;;;;;0.82;81.10;100302.54;78318;1292;3052228;-64
2023/02/28 06:52:47;;;;;;;10.70;6.60;;;;;;;0.65;81.80;100310.59;79640;1291;3020968;-64
2023/02/28 06:55:20;;;;;;;12.90;6.70;;;;;;;0.43;82.71;100306.24;78332;1297;3053833;-67
2023/02/28 06:57:47;;;;;;;12.20;6.40;;;;;;;0.51;83.02;100301.20;79675;1297;3018546;-67
2023/02/28 07:00:14;;;;;;;14.30;6.70;;;;;;;0.44;82.93;100310.38;79729;1291;3011808;-67
2023/02/28 07:02:42;;;;;;;11.30;6.40;;;;;;;0.18;83.07;100312.75;78399;1296;3068319;-63
2023/02/28 07:05:09;;;;;;;12.50;6.70;;;;;;;0.11;83.09;100321.05;79586;1291;3012843;-65
2023/02/28 07:07:40;;;;;;;12.90;6.90;;;;;;;0.06;83.64;100323.82;79600;1291;3013520;-63
2023/02/28 07:10:13;;;;;;;9.60;4.70;;;;;;;0.16;83.95;100325.85;78360;1291;3053202;-65
2023/02/28 07:12:44;;;;;;;9.10;4.70;;;;;;;0.76;82.25;100321.90;78369;1296;3049984;-66
2023/02/28 07:15:11;;;;;;;10.00;5.90;;;;;;;1.21;79.56;100312.58;80017;1295;3013707;-69
2023/02/28 07:17:38;;;;;;;11.40;5.80;;;;;;;1.13;78.99;100317.65;79590;1291;3013521;-68
2023/02/28 07:20:07;;;;;;;9.90;5.50;;;;;;;0.74;79.42;100311.21;78375;1291;3028614;-67
2023/02/28 07:22:34;;;;;;;12.20;6.50;;;;;;;0.80;79.72;100307.39;79687;1291;3012100;-66
2023/02/28 07:25:00;;;;;;;12.00;6.50;;;;;;;0.56;80.31;100310.30;79540;1291;3011810;-67
2023/02/28 07:27:28;;;;;;;11.60;5.80;;;;;;;0.38;81.06;100316.09;78531;1291;3049525;-70
2023/02/28 07:29:55;;;;;;;10.70;6.30;;;;;;;0.11;81.83;100316.05;79831;1291;3013645;-67
2023/02/28 07:32:22;;;;;;;11.70;6.60;;;;;;;0.03;83.14;100315.56;79784;1295;3011621;-64
2023/02/28 07:34:50;;;;;;;14.00;7.10;;;;;;;-0.02;83.25;100313.17;78338;1291;3025931;-66
2023/02/28 07:37:16;;;;;;;12.10;6.80;;;;;;;-0.15;83.41;100319.08;79616;1291;3013275;-65
2023/02/28 07:39:43;;;;;;;17.00;7.80;;;;;;;-0.27;83.73;100311.00;79609;1291;3012176;-65
2023/02/28 07:42:12;;;;;;;12.30;5.50;;;;;;;-0.27;84.38;100309.63;78464;1295;3026833;-65
2023/02/28 07:44:40;;;;;;;8.20;4.80;;;;;;;0.43;82.36;100307.79;79623;1294;3013189;-65
2023/02/28 07:47:08;;;;;;;8.00;4.70;;;;;;;0.97;79.77;100298.98;79741;1291;3011836;-65
2023/02/28 07:49:36;;;;;;;12.00;6.50;;;;;;;0.97;78.90;100301.21;78433;1294;3050047;-66
2023/02/28 07:52:06;;;;;;;11.00;5.90;;;;;;;1.01;78.64;100302.05;79632;1294;3012983;-66
2023/02/28 07:54:35;;;;;;;13.40;7.70;;;;;;;0.79;78.65;100315.84;79166;1292;3011604;-66
2023/02/28 07:57:02;;;;;;;13.00;7.20;;;;;;;0.69;79.81;100308.15;80018;1291;3018492;-65
2023/02/28 07:59:31;;;;;;;11.30;6.60;;;;;;;0.70;79.71;100302.97;79750;1297;3011739;-67
2023/02/28 08:01:59;;;;;;;13.10;6.80;;;;;;;0.82;80.04;100305.47;78238;1291;3052051;-64
2023/02/28 08:04:25;;;;;;;10.70;6.50;;;;;;;0.76;79.73;100308.96;79598;1295;3013314;-64
2023/02/28 08:07:13;;;;;;;10.60;6.70;;;;;;;0.54;79.76;100313.40;78362;1291;3056628;-65
2023/02/28 08:09:45;;;;;;;11.00;6.60;;;;;;;0.19;80.86;100321.87;79680;1291;3013630;-65
2023/02/28 08:12:13;;;;;;;9.60;5.70;;;;;;;-0.01;81.77;100326.61;78365;1296;3053028;-65
2023/02/28 08:14:40;;;;;;;10.70;5.90;;;;;;;-0.04;81.59;100329.71;79606;1296;3013361;-62
2023/02/28 08:17:06;;;;;;;10.50;7.00;;;;;;;-0.04;81.46;100321.96;79641;1295;3012237;-62
2023/02/28 08:19:36;;;;;;;6.40;4.20;;;;;;;0.06;81.72;100314.02;78292;1292;3069022;-65
2023/02/28 08:22:06;;;;;;;8.20;4.10;;;;;;;0.81;79.99;100309.60;79597;1292;3012982;-63
2023/02/28 08:24:35;;;;;;;9.70;5.40;;;;;;;1.62;77.16;100314.61;79062;1291;3013347;-65
2023/02/28 08:27:02;;;;;;;8.30;5.80;;;;;;;1.75;75.84;100322.23;79618;1291;3013520;-65
2023/02/28 08:29:30;;;;;;;9.60;6.30;;;;;;;1.94;75.59;100320.84;79571;1292;3012053;-63
2023/02/28 08:31:58;;;;;;;10.00;6.40;;;;;;;1.70;75.43;100324.55;78685;1296;3053171;-64
2023/02/28 08:34:25;;;;;;;10.50;6.40;;;;;;;1.26;76.27;100328.77;79649;1296;3013435;-64
2023/02/28 08:36:52;;;;;;;10.70;5.90;;;;;;;1.08;76.39;100330.64;79423;1291;3011999;-63
2023/02/28 08:39:23;;;;;;;11.30;7.20;;;;;;;0.59;77.81;100333.90;78311;1296;3056919;-64
2023/02/28 08:41:50;;;;;;;10.70;6.70;;;;;;;0.57;78.93;100330.64;79629;1291;3013669;-65
2023/02/28 08:44:16;;;;;;;12.00;7.20;;;;;;;0.48;79.39;100330.68;79463;1291;3013776;-64
2023/02/28 08:46:45;;;;;;;13.30;7.70;;;;;;;0.48;79.45;100332.23;78404;1296;3029825;-65
2023/02/28 08:49:11;;;;;;;12.50;6.50;;;;;;;0.32;80.09;100340.60;79654;1296;3012775;-64
2023/02/28 08:51:39;;;;;;;15.10;7.40;;;;;;;0.45;80.35;100342.09;79635;1291;3013129;-64
2023/02/28 08:54:07;;;;;;;12.80;7.10;;;;;;;0.42;80.18;100340.89;78342;1292;3056461;-66
2023/02/28 08:56:36;;;;;;;12.50;7.10;;;;;;;0.38;80.04;100337.11;79630;1297;3011911;-64
2023/02/28 08:59:03;;;;;;;12.00;7.40;;;;;;;0.38;80.04;100338.50;79575;1291;3011855;-66
2023/02/28 09:01:31;;;;;;;8.40;4.90;;;;;;;0.45;79.72;100334.67;78399;1296;3054309;-65
2023/02/28 09:03:58;;;;;;;9.80;5.10;;;;;;;1.05;79.15;100327.73;79617;1291;3013259;-64
2023/02/28 09:06:26;;;;;;;10.20;5.70;;;;;;;1.73;75.90;100330.39;79568;1295;3013224;-64
2023/02/28 09:08:58;;;;;;;9.60;5.30;;;;;;;1.73;74.80;100334.52;78393;1297;3057237;-66
2023/02/28 09:11:25;;;;;;;11.40;5.20;;;;;;;1.50;74.54;100334.77;79581;1291;3011861;-63
2023/02/28 09:14:03;;;;;;;10.50;5.80;;;;;;;1.16;75.02;100336.95;78489;1291;3054224;-62
2023/02/28 09:16:30;;;;;;;13.20;6.90;;;;;;;1.02;75.52;100341.20;79612;1291;3011459;-65
2023/02/28 09:18:58;;;;;;;10.00;6.30;;;;;;;0.93;76.53;100346.44;78495;1296;3052775;-67
2023/02/28 09:21:25;;;;;;;9.30;6.00;;;;;;;1.13;76.29;100343.36;79662;1292;3014636;-66
2023/02/28 09:23:52;;;;;;;10.80;6.30;;;;;;;1.04;75.82;100349.30;79883;1291;3011794;-66
2023/02/28 09:26:27;;;;;;;15.50;5.70;;;;;;;0.73;76.59;100347.80;78391;1291;3056944;-71
2023/02/28 09:28:54;;;;;;;11.40;7.00;;;;;;;0.49;77.15;100351.20;79979;1291;3011674;-64
2023/02/28 09:31:23;;;;;;;12.50;6.20;;;;;;;0.47;77.52;100349.48;78437;1294;3027735;-63
2023/02/28 09:33:51;;;;;;;12.30;6.40;;;;;;;0.65;77.33;100348.52;79691;1296;3013743;-69
2023/02/28 09:36:20;;;;;;;11.60;6.90;;;;;;;0.61;76.99;100350.96;79074;1294;3011944;-66
2023/02/28 09:38:49;;;;;;;10.90;6.70;;;;;;;0.63;77.41;100349.40;79673;1296;3014845;-66
2023/02/28 09:41:17;;;;;;;13.50;8.00;;;;;;;0.74;77.35;100349.16;79575;1296;3012055;-65
2023/02/28 09:43:52;;;;;;;12.80;7.30;;;;;;;0.75;77.20;100353.81;78455;1296;3057787;-64
2023/02/28 09:46:32;;;;;;;12.70;7.10;;;;;;;0.75;76.96;100348.13;79576;1291;3013249;-66
2023/02/28 09:49:06;;;;;;;13.00;7.80;;;;;;;0.83;76.42;100344.80;76124;1294;5312116;-66
2023/02/28 09:52:01;;;;;;;14.00;7.20;;;;;;;0.84;76.51;100346.50;78255;1297;3050057;-66
2023/02/28 09:54:31;;;;;;;11.30;7.30;;;;;;;0.87;76.39;100342.17;78354;1297;3053846;-70
2023/02/28 09:57:31;;;;;;;13.90;7.50;;;;;;;0.83;76.46;100342.89;79702;1296;3013262;-67
2023/02/28 10:00:09;;;;;;;11.10;7.00;;;;;;;0.69;76.78;100345.05;78586;1294;3069423;-66
2023/02/28 10:02:50;;;;;;;14.10;7.20;;;;;;;0.65;77.56;100345.94;78115;1291;3051603;-65
2023/02/28 10:05:28;;;;;;;11.30;6.50;;;;;;;0.54;77.12;100345.14;78280;1291;3058216;-66
2023/02/28 10:08:14;;;;;;;10.30;6.90;;;;;;;0.55;76.82;100339.61;78431;1296;3049739;-65
2023/02/28 10:10:45;;;;;;;11.80;6.10;;;;;;;0.44;76.62;100343.48;78459;1291;3054226;-66
2023/02/28 10:13:17;;;;;;;11.80;7.20;;;;;;;0.38;76.79;100342.46;79632;1291;3011818;-65
2023/02/28 10:15:46;;;;;;;15.40;7.30;;;;;;;0.35;77.10;100343.00;78381;1294;3051575;-64
2023/02/28 10:18:18;;;;;;;13.70;7.20;;;;;;;0.24;77.25;100337.02;79680;1291;3011465;-65
2023/02/28 10:20:46;;;;;;;13.90;7.20;;;;;;;0.32;76.81;100341.98;78388;1292;3068667;-71
2023/02/28 10:23:32;;;;;;;16.00;8.00;;;;;;;0.27;76.97;100342.86;79628;1291;3013600;-63
2023/02/28 10:26:15;;;;;;;16.00;8.20;;;;;;;0.19;77.65;100338.24;78357;1296;3057693;-67
2023/02/28 10:28:45;;;;;;;10.70;5.50;;;;;;;0.20;77.96;100334.61;78420;1292;3048349;-68
2023/02/28 10:31:16;;;;;;;10.20;5.40;;;;;;;1.06;76.23;100326.86;79589;1294;3019335;-65
2023/02/28 10:33:47;;;;;;;16.80;8.70;;;;;;;1.82;72.99;100322.17;78365;1291;3052524;-66
2023/02/28 10:36:18;;;;;;;15.60;9.00;;;;;;;1.75;71.75;100321.56;79607;1296;3013933;-65
2023/02/28 10:38:47;;;;;;;15.60;8.50;;;;;;;1.30;72.17;100327.17;78396;1297;3052066;-63
2023/02/28 10:41:27;;;;;;;15.20;8.00;;;;;;;1.10;72.89;100319.74;79587;1294;3013050;-66
2023/02/28 10:44:20;;;;;;;13.80;8.00;;;;;;;0.83;73.68;100317.88;78390;1297;3053741;-66
2023/02/28 10:46:48;;;;;;;14.10;7.80;;;;;;;0.85;73.35;100313.90;78441;1296;3050753;-66
2023/02/28 10:49:21;;;;;;;14.20;7.30;;;;;;;0.77;73.29;100323.63;79668;1296;3013208;-62
2023/02/28 10:51:52;;;;;;;14.60;7.10;;;;;;;0.72;73.61;100316.05;78462;1291;3068535;-64
2023/02/28 10:54:22;;;;;;;12.60;6.80;;;;;;;0.73;73.57;100305.54;79661;1291;3011634;-65
2023/02/28 10:57:18;;;;;;;13.00;7.20;;;;;;;0.92;73.28;100305.91;78655;1295;3057541;-67
2023/02/28 10:59:50;;;;;;;13.60;7.60;;;;;;;1.04;73.05;100304.44;78522;1291;3050494;-65
2023/02/28 11:02:34;;;;;;;15.00;8.50;;;;;;;0.88;72.64;100305.60;80684;1293;3013231;-63
2023/02/28 11:05:02;;;;;;;15.70;8.40;;;;;;;0.63;73.10;100307.34;79579;1291;3051885;-64
2023/02/28 11:07:30;;;;;;;14.10;7.30;;;;;;;0.45;73.52;100300.89;80696;1291;3011380;-62
2023/02/28 11:09:57;;;;;;;13.20;8.20;;;;;;;0.54;73.23;100301.87;79857;1295;3011932;-70
2023/02/28 11:12:30;;;;;;;15.30;7.30;;;;;;;0.45;72.84;100300.19;78203;1291;3051693;-68
2023/02/28 11:14:59;;;;;;;14.00;7.80;;;;;;;0.54;73.15;100293.23;79427;1291;3011348;-59
2023/02/28 11:17:29;;;;;;;12.90;6.90;;;;;;;0.52;72.94;100301.02;78321;1291;3051240;-60
2023/02/28 11:20:04;;;;;;;12.30;7.40;;;;;;;0.64;72.68;100300.59;79866;1291;3013472;-59
2023/02/28 11:22:35;;;;;;;10.40;6.50;;;;;;;0.72;72.59;100295.55;78336;1296;3050179;-60
2023/02/28 11:25:07;;;;;;;11.10;7.00;;;;;;;0.68;72.33;100297.30;82189;1291;3011478;-59
2023/02/28 11:27:51;;;;;;;14.00;7.60;;;;;;;0.63;72.91;100295.09;79616;1292;3052166;-60
2023/02/28 11:30:27;;;;;;;12.60;7.40;;;;;;;0.56;73.34;100296.84;78255;1291;3070389;-57